Siam — SGIP — position and weather

sailwx.info

Track history (hours):
 
Tides and Currents Weather Stations Pressure Air Temp Water Temp Dewpoint Dewpoint Depression Visibility Wind Speed Wind Dir Waves Ship Positions

Siam

Last reported at 2017-Jul-20 12:00 UTC. Time now 2017-Jul-20 12:23 UTC.
Position N 55°60' E 012°42'.

Length 22 m.

Type: Passenger vessel. MMSI: 265572320.

Date/timePositionNaut miles runAvg speedWind from/ knotsBaromVisibWave heightAir tempDewpointWater temp
2017-Jul-20 12:00N 55°60' E 012°42'1 2.8
2017-Jul-20 11:30N 55°59' E 012°45'0 0.2
2017-Jul-20 10:58N 55°60' E 012°45'0 0.0
2017-Jul-20 10:28N 55°60' E 012°45'0 0.2
2017-Jul-20 10:00N 55°59' E 012°45'4 7.7
2017-Jul-20 09:28N 55°56' E 012°40'0 0.6
2017-Jul-20 09:00N 55°56' E 012°40'1 2.7
2017-Jul-20 08:30N 55°56' E 012°42'0 0.3
2017-Jul-20 08:00N 55°56' E 012°42'1 1.2
2017-Jul-20 07:30N 55°57' E 012°41'1 1.2
2017-Jul-20 07:01N 55°57' E 012°41'1 1.4
2017-Jul-20 06:30N 55°58' E 012°41'2 4.1
2017-Jul-20 06:00N 55°59' E 012°44'0 0.5
2017-Jul-20 05:20N 55°60' E 012°45'0 0.0
2017-Jul-20 04:53N 55°60' E 012°45'0 0.0
2017-Jul-20 04:23N 55°60' E 012°45'0 0.0
2017-Jul-20 02:35N 55°60' E 012°45'0 0.0
2017-Jul-20 02:29N 55°60' E 012°45'0 0.0
2017-Jul-20 01:53N 55°60' E 012°45'0 0.0
2017-Jul-20 01:29N 55°60' E 012°45'0 0.0
2017-Jul-20 00:59N 55°60' E 012°45'0 0.0
2017-Jul-20 00:29N 55°60' E 012°45'0 0.0
2017-Jul-19 23:59N 55°60' E 012°45'0 0.0
2017-Jul-19 23:29N 55°60' E 012°45'0 0.0
2017-Jul-19 22:59N 55°60' E 012°45'0 0.0
2017-Jul-19 22:29N 55°60' E 012°45'0 0.0
2017-Jul-19 21:59N 55°60' E 012°45'0 0.0
2017-Jul-19 21:29N 55°60' E 012°45'0 0.0
2017-Jul-19 20:59N 55°60' E 012°45'0 0.0
2017-Jul-19 20:29N 55°60' E 012°45'0 0.0
2017-Jul-19 19:59N 55°60' E 012°45'0 0.0
2017-Jul-19 19:29N 55°60' E 012°45'0 0.0
2017-Jul-19 18:59N 55°60' E 012°45'0 0.0
2017-Jul-19 18:29N 55°60' E 012°45'0 0.0
2017-Jul-19 17:56N 55°60' E 012°45'0 0.0
2017-Jul-19 17:29N 55°60' E 012°45'0 0.0
2017-Jul-19 16:53N 55°60' E 012°45'0 0.0
2017-Jul-19 16:29N 55°60' E 012°45'0 0.0
2017-Jul-19 15:47N 55°60' E 012°45'0 0.0
2017-Jul-19 15:30N 55°60' E 012°45'2 4.5
2017-Jul-19 14:58N 55°58' E 012°42'2 3.2
2017-Jul-19 14:29N 55°56' E 012°42'1 1.6
2017-Jul-19 13:59N 55°56' E 012°44'2 3.8
2017-Jul-19 13:30N 55°56' E 012°40'0 0.7
2017-Jul-19 13:00N 55°56' E 012°40'2 3.2
2017-Jul-19 12:30N 55°57' E 012°42'0 0.1
2017-Jul-19 12:00N 55°57' E 012°41'3 1.4
2017-Jul-19 09:59N 55°60' E 012°45'2 4.0
2017-Jul-19 09:29N 55°59' E 012°41'1 2.2
2017-Jul-19 09:00N 55°60' E 012°42'0 0.4
2017-Jul-19 08:30N 55°59' E 012°42'1 1.6
2017-Jul-19 08:00N 56°00' E 012°42'0 0.3
2017-Jul-19 07:30N 56°00' E 012°42'0 0.5
2017-Jul-19 07:00N 56°00' E 012°42'1 2.4
2017-Jul-19 06:30N 55°59' E 012°41'2 0.1
2017-Jul-18 10:13N 55°60' E 012°45'1 5.2
2017-Jul-18 10:00N 55°58' E 012°44'2 3.1
2017-Jul-18 09:14N 55°56' E 012°43'0 1.4
2017-Jul-18 08:59N 55°56' E 012°44'0 0.4
2017-Jul-18 08:16N 55°56' E 012°43'0 0.4
2017-Jul-18 07:57N 55°56' E 012°44'0 0.5
2017-Jul-18 07:30N 55°56' E 012°44'2 3.4
2017-Jul-18 07:00N 55°56' E 012°41'2 3.3
2017-Jul-18 06:30N 55°58' E 012°42'2 0.1
2017-Jul-17 13:08N 55°60' E 012°45'0 0.0
2017-Jul-17 12:44N 55°60' E 012°45'0 0.0
2017-Jul-17 11:23N 55°60' E 012°45'0 0.0
2017-Jul-17 10:53N 55°60' E 012°45'0 0.0
2017-Jul-17 10:26N 55°60' E 012°45'0 0.0
2017-Jul-17 09:59N 55°60' E 012°45'0 0.0
2017-Jul-17 09:29N 55°60' E 012°45'0 0.0
2017-Jul-17 08:59N 55°60' E 012°45'0 0.0
2017-Jul-17 08:29N 55°60' E 012°45'0 0.0
2017-Jul-17 07:53N 55°60' E 012°45'0 0.0
2017-Jul-17 07:29N 55°60' E 012°45'0 0.0
2017-Jul-17 06:59N 55°60' E 012°45'0 0.0
2017-Jul-17 06:29N 55°60' E 012°45'0 0.0
2017-Jul-17 05:53N 55°60' E 012°45'0 0.0
2017-Jul-17 03:44N 55°60' E 012°45'0 0.0
2017-Jul-17 03:23N 55°60' E 012°45'0 0.0
2017-Jul-17 02:38N 55°60' E 012°45'0 0.0
2017-Jul-17 02:11N 55°60' E 012°45'0 0.0
2017-Jul-17 01:11N 55°60' E 012°45'0 0.0
2017-Jul-17 00:53N 55°60' E 012°45'0 0.0
2017-Jul-17 00:29N 55°60' E 012°45'0 0.0
2017-Jul-16 23:44N 55°60' E 012°45'0 0.0
2017-Jul-16 23:29N 55°60' E 012°45'0 0.0
2017-Jul-16 22:59N 55°60' E 012°45'0 0.0
2017-Jul-16 22:17N 55°60' E 012°45'0 0.0
2017-Jul-16 21:53N 55°60' E 012°45'0 0.0
2017-Jul-16 21:17N 55°60' E 012°45'0 0.0
2017-Jul-16 20:59N 55°60' E 012°45'0 0.0
2017-Jul-16 20:29N 55°60' E 012°45'0 0.0
2017-Jul-16 19:53N 55°60' E 012°45'0 0.0
2017-Jul-16 19:29N 55°60' E 012°45'0 0.0
2017-Jul-16 18:59N 55°60' E 012°45'0 0.0
2017-Jul-16 18:29N 55°60' E 012°45'0 0.0
2017-Jul-16 17:59N 55°60' E 012°45'0 0.0
2017-Jul-16 17:17N 55°60' E 012°45'0 0.0
2017-Jul-16 16:59N 55°60' E 012°45'0 0.0
2017-Jul-16 16:11N 55°60' E 012°45'0 0.0
2017-Jul-16 15:50N 55°60' E 012°45'0 0.0
2017-Jul-16 15:14N 55°60' E 012°45'0 0.0
2017-Jul-16 14:59N 55°60' E 012°45'0 0.0
2017-Jul-16 14:26N 55°60' E 012°45'0 0.0
2017-Jul-16 13:56N 55°60' E 012°45'0 0.0
2017-Jul-16 13:29N 55°60' E 012°45'0 0.0
2017-Jul-16 12:59N 55°60' E 012°45'0 0.0
2017-Jul-16 12:29N 55°60' E 012°45'0 0.0
2017-Jul-16 11:59N 55°60' E 012°45'0 0.0
2017-Jul-16 11:29N 55°60' E 012°45'0 0.0
2017-Jul-16 10:59N 55°60' E 012°45'0 0.0
2017-Jul-16 10:29N 55°60' E 012°45'0 0.0
2017-Jul-16 09:59N 55°60' E 012°45'0 0.0
2017-Jul-16 09:17N 55°60' E 012°45'0 0.0
2017-Jul-16 08:59N 55°60' E 012°45'0 0.0
2017-Jul-16 08:26N 55°60' E 012°45'0 0.0
2017-Jul-16 07:59N 55°60' E 012°45'0 0.0
2017-Jul-16 07:29N 55°60' E 012°45'0 0.0
2017-Jul-16 06:59N 55°60' E 012°45'0 0.0
2017-Jul-16 06:29N 55°60' E 012°45'0 0.0
2017-Jul-16 05:59N 55°60' E 012°45'0 0.0
2017-Jul-16 05:26N 55°60' E 012°45'0 0.0
2017-Jul-16 04:59N 55°60' E 012°45'0 0.0
2017-Jul-16 04:26N 55°60' E 012°45'0 0.0
2017-Jul-16 03:59N 55°60' E 012°45'0 0.0
2017-Jul-16 03:29N 55°60' E 012°45'0 0.0
2017-Jul-16 02:53N 55°60' E 012°45'0 0.0
2017-Jul-16 02:29N 55°60' E 012°45'0 0.0
2017-Jul-16 01:56N 55°60' E 012°45'0 0.0
2017-Jul-16 01:29N 55°60' E 012°45'0 0.0
2017-Jul-16 00:59N 55°60' E 012°45'0 0.0
2017-Jul-16 00:29N 55°60' E 012°45'0 0.0
2017-Jul-15 23:59N 55°60' E 012°45'0 0.0
2017-Jul-15 23:29N 55°60' E 012°45'0 0.0
2017-Jul-15 22:59N 55°60' E 012°45'0 0.0
2017-Jul-15 22:29N 55°60' E 012°45'0 0.0
2017-Jul-15 21:59N 55°60' E 012°45'0 0.0
2017-Jul-15 21:29N 55°60' E 012°45'0 0.0
2017-Jul-15 20:59N 55°60' E 012°45'0 0.0
2017-Jul-15 20:26N 55°60' E 012°45'0 0.0
2017-Jul-15 20:00N 55°60' E 012°45'4 7.8
2017-Jul-15 19:30N 55°56' E 012°44'5 9.4
2017-Jul-15 18:56N 55°50' E 012°42'5 9.4
2017-Jul-15 18:26N 55°46' E 012°40'4 8.9
2017-Jul-15 18:00N 55°42' E 012°37'1 2.0
2017-Jul-15 17:29N 55°42' E 012°36'4 8.2
2017-Jul-15 16:59N 55°45' E 012°39'6 8.7
2017-Jul-15 16:18N 55°51' E 012°39'3 8.6
2017-Jul-15 15:59N 55°54' E 012°39'4 8.5
2017-Jul-15 15:30N 55°58' E 012°42'2 4.7
2017-Jul-15 15:00N 55°60' E 012°45'0 0.0
2017-Jul-15 14:00N 55°60' E 012°45'0 0.0
2017-Jul-15 13:24N 55°60' E 012°45'0 0.0
2017-Jul-15 13:00N 55°60' E 012°45'0 0.0
2017-Jul-15 12:30N 55°60' E 012°45'0 0.0
2017-Jul-15 12:00N 55°60' E 012°45'0 0.0
2017-Jul-15 11:30N 55°60' E 012°45'0 0.0
2017-Jul-15 10:54N 55°60' E 012°45'0 0.0
2017-Jul-15 10:30N 55°60' E 012°45'0 0.3
2017-Jul-15 10:00N 55°59' E 012°44'4 7.4
2017-Jul-15 09:30N 55°56' E 012°42'0 0.4
2017-Jul-15 09:00N 55°56' E 012°42'0 0.1
2017-Jul-15 08:29N 55°56' E 012°42'0 0.2
2017-Jul-15 08:00N 55°56' E 012°42'0 0.6
2017-Jul-15 07:27N 55°56' E 012°42'0 0.7
2017-Jul-15 07:00N 55°57' E 012°42'3 5.3
2017-Jul-15 06:27N 55°60' E 012°42'2 3.2
2017-Jul-15 05:55N 55°60' E 012°45'0 0.0
2017-Jul-15 05:25N 55°60' E 012°45'0 0.0
2017-Jul-15 04:58N 55°60' E 012°45'0 0.0
2017-Jul-15 04:22N 55°60' E 012°45'0 0.0
2017-Jul-15 03:55N 55°60' E 012°45'0 0.0
2017-Jul-15 03:19N 55°60' E 012°45'0 0.0
2017-Jul-15 02:49N 55°60' E 012°45'0 0.0
2017-Jul-15 02:22N 55°60' E 012°45'0 0.0
2017-Jul-15 00:55N 55°60' E 012°45'0 0.0
2017-Jul-15 00:25N 55°60' E 012°45'0 0.0
2017-Jul-14 23:43N 55°60' E 012°45'0 0.0
2017-Jul-14 23:13N 55°60' E 012°45'0 0.0
2017-Jul-14 22:55N 55°60' E 012°45'0 0.0
2017-Jul-14 22:28N 55°60' E 012°45'0 0.0
2017-Jul-14 21:55N 55°60' E 012°45'0 0.0
2017-Jul-14 21:28N 55°60' E 012°45'0 0.0
2017-Jul-14 20:58N 55°60' E 012°45'0 0.0
2017-Jul-14 20:28N 55°60' E 012°45'0 0.0
2017-Jul-14 19:52N 55°60' E 012°45'0 0.0
2017-Jul-14 19:25N 55°60' E 012°45'0 0.0
2017-Jul-14 18:58N 55°60' E 012°45'0 0.0
2017-Jul-14 18:22N 55°60' E 012°45'0 0.0
2017-Jul-14 17:58N 55°60' E 012°45'0 0.0
2017-Jul-14 17:28N 55°60' E 012°45'0 0.0
2017-Jul-14 16:52N 55°60' E 012°45'0 0.0
2017-Jul-14 15:49N 55°60' E 012°45'0 0.0
2017-Jul-14 15:13N 55°60' E 012°45'0 0.0
2017-Jul-14 14:58N 55°60' E 012°45'0 0.0
2017-Jul-14 14:25N 55°60' E 012°45'0 0.0
2017-Jul-14 11:19N 55°60' E 012°45'0 0.0
2017-Jul-14 10:56N 55°60' E 012°45'0 0.0
2017-Jul-14 10:26N 55°60' E 012°45'1 3.2
2017-Jul-14 10:01N 55°58' E 012°44'2 4.6
2017-Jul-14 09:28N 55°56' E 012°43'0 0.4
2017-Jul-14 08:58N 55°56' E 012°43'0 0.5
2017-Jul-14 08:26N 55°56' E 012°43'0 0.6
2017-Jul-14 08:00N 55°56' E 012°43'0 0.1
2017-Jul-14 07:28N 55°56' E 012°43'1 3.0
2017-Jul-14 07:00N 55°56' E 012°41'1 1.9
2017-Jul-14 06:30N 55°57' E 012°42'3 0.3
2017-Jul-13 17:59N 55°60' E 012°45'0 0.0
2017-Jul-13 17:26N 55°60' E 012°45'0 0.0
2017-Jul-13 11:02N 55°60' E 012°45'0 0.1
2017-Jul-13 10:57N 55°60' E 012°45'4 7.6
2017-Jul-13 10:27N 55°56' E 012°45'3 5.3
2017-Jul-13 09:53N 55°53' E 012°45'0 0.1
2017-Jul-13 09:19N 55°53' E 012°45'0 0.4
2017-Jul-13 08:51N 55°53' E 012°45'1 1.2
2017-Jul-13 08:22N 55°53' E 012°45'4 9.4
2017-Jul-13 07:59N 55°56' E 012°41'1 2.4
2017-Jul-13 07:29N 55°56' E 012°39'0 0.1
2017-Jul-13 06:59N 55°56' E 012°39'1 1.2
2017-Jul-13 06:31N 55°56' E 012°40'4 7.8
2017-Jul-13 05:57N 55°59' E 012°44'0 0.0
2017-Jul-12 23:28N 55°60' E 012°45'0 0.0
2017-Jul-12 22:43N 55°60' E 012°45'0 0.0
2017-Jul-12 22:25N 55°60' E 012°45'0 0.0
2017-Jul-12 21:49N 55°60' E 012°45'0 0.0
2017-Jul-12 20:28N 55°60' E 012°45'0 0.0
2017-Jul-12 19:58N 55°60' E 012°45'0 0.0
2017-Jul-12 16:07N 55°60' E 012°45'0 0.0
2017-Jul-12 15:31N 55°60' E 012°45'0 0.8
2017-Jul-12 15:30N 55°60' E 012°45'2 3.9
2017-Jul-12 14:58N 55°59' E 012°41'2 2.5
2017-Jul-12 14:00N 55°56' E 012°42'1 1.7
2017-Jul-12 13:29N 55°56' E 012°43'0 0.2
2017-Jul-12 12:45N 55°56' E 012°43'0 1.0
2017-Jul-12 12:25N 55°56' E 012°44'0 0.2
2017-Jul-12 12:00N 55°56' E 012°44'4 6.9
2017-Jul-12 11:30N 55°59' E 012°44'0 0.1
2017-Jul-12 10:05N 55°60' E 012°45'0 1.9
2017-Jul-12 10:00N 55°59' E 012°44'4 8.3
2017-Jul-12 09:28N 55°56' E 012°39'0 0.3
2017-Jul-12 09:00N 55°56' E 012°40'2 3.1
2017-Jul-12 08:28N 55°56' E 012°43'1 1.8
2017-Jul-12 07:50N 55°56' E 012°44'1 1.9
2017-Jul-12 07:30N 55°56' E 012°43'0 0.8
2017-Jul-12 06:53N 55°56' E 012°43'0 0.4
2017-Jul-12 06:30N 55°56' E 012°44'4 7.1
2017-Jul-12 06:01N 55°59' E 012°45'0 0.0
2017-Jul-12 01:15N 55°60' E 012°45'0 0.0
2017-Jul-12 00:06N 55°60' E 012°45'0 0.0
2017-Jul-12 00:00N 55°60' E 012°45'0 0.0
2017-Jul-11 23:27N 55°60' E 012°45'0 0.0
2017-Jul-11 22:39N 55°60' E 012°45'0 0.0
2017-Jul-11 22:30N 55°60' E 012°45'0 0.0
2017-Jul-11 22:00N 55°60' E 012°45'0 0.0
2017-Jul-11 21:30N 55°60' E 012°45'0 0.0
2017-Jul-11 21:00N 55°60' E 012°45'0 0.0
2017-Jul-11 20:30N 55°60' E 012°45'0 0.0
2017-Jul-11 19:57N 55°60' E 012°45'0 0.0
2017-Jul-11 19:30N 55°60' E 012°45'0 0.0
2017-Jul-11 19:00N 55°60' E 012°45'0 0.0
2017-Jul-11 18:30N 55°60' E 012°45'0 0.0
2017-Jul-11 18:00N 55°60' E 012°45'0 0.0
2017-Jul-11 17:30N 55°60' E 012°45'0 0.0
2017-Jul-11 17:00N 55°60' E 012°45'0 0.0
2017-Jul-11 16:27N 55°60' E 012°45'0 0.0
2017-Jul-11 16:00N 55°60' E 012°45'0 0.0
2017-Jul-11 15:30N 55°60' E 012°45'2 4.0
2017-Jul-11 14:59N 55°59' E 012°41'1 2.9
2017-Jul-11 14:30N 55°57' E 012°42'0 0.6
2017-Jul-11 14:00N 55°57' E 012°42'1 1.9
2017-Jul-11 13:30N 55°56' E 012°41'1 1.8
2017-Jul-11 13:00N 55°56' E 012°39'0 0.6
2017-Jul-11 12:28N 55°56' E 012°40'2 3.4
2017-Jul-11 12:00N 55°57' E 012°42'3 6.3
2017-Jul-11 11:29N 55°60' E 012°45'0 0.1
2017-Jul-11 11:00N 55°60' E 012°45'0 0.0
2017-Jul-11 10:12N 55°60' E 012°45'0 0.1
2017-Jul-11 10:00N 55°60' E 012°45'2 3.7
2017-Jul-11 09:30N 55°59' E 012°42'0 0.5
2017-Jul-11 09:00N 55°59' E 012°41'1 1.5
2017-Jul-11 08:30N 55°58' E 012°41'2 4.0
2017-Jul-11 08:00N 55°56' E 012°41'1 2.5
2017-Jul-11 07:30N 55°55' E 012°39'0 0.5
2017-Jul-11 07:00N 55°55' E 012°39'1 2.2
2017-Jul-11 06:30N 55°56' E 012°41'4 2.8
2017-Jul-11 05:03N 55°60' E 012°45'0 0.0
2017-Jul-11 04:57N 55°60' E 012°45'0 0.0
2017-Jul-11 03:33N 55°60' E 012°45'0 0.0
2017-Jul-11 03:21N 55°60' E 012°45'0 0.0
2017-Jul-11 02:48N 55°60' E 012°45'0 0.0
2017-Jul-11 02:27N 55°60' E 012°45'0 0.0
2017-Jul-11 02:00N 55°60' E 012°45'0 0.0
2017-Jul-11 01:30N 55°60' E 012°45'0 0.0
2017-Jul-11 00:57N 55°60' E 012°45'0 0.0
2017-Jul-11 00:27N 55°60' E 012°45'0 0.0
2017-Jul-10 23:57N 55°60' E 012°45'0 0.0
2017-Jul-10 23:27N 55°60' E 012°45'0 0.0
2017-Jul-10 22:57N 55°60' E 012°45'0 0.0
2017-Jul-10 22:27N 55°60' E 012°45'0 0.0
2017-Jul-10 21:57N 55°60' E 012°45'0 0.0
2017-Jul-10 21:27N 55°60' E 012°45'0 0.0
2017-Jul-10 20:57N 55°60' E 012°45'0 0.0
2017-Jul-10 20:27N 55°60' E 012°45'0 0.0
2017-Jul-10 19:51N 55°60' E 012°45'0 0.0
2017-Jul-10 19:27N 55°60' E 012°45'0 0.0
2017-Jul-10 18:51N 55°60' E 012°45'0 0.0
2017-Jul-10 18:30N 55°60' E 012°45'0 0.0
2017-Jul-10 17:57N 55°60' E 012°45'0 0.0
2017-Jul-10 16:21N 55°60' E 012°45'0 0.0
2017-Jul-10 15:57N 55°60' E 012°45'0 0.0
2017-Jul-10 15:30N 55°60' E 012°45'0 0.0
2017-Jul-10 15:00N 55°60' E 012°45'0 0.0
2017-Jul-10 14:21N 55°60' E 012°45'0 0.0
2017-Jul-10 13:54N 55°60' E 012°45'0 0.0
2017-Jul-10 13:30N 55°60' E 012°45'0 0.0
2017-Jul-10 13:00N 55°60' E 012°45'0 0.0
2017-Jul-10 12:30N 55°60' E 012°45'  
Track history (hours):
 
Tides and Currents Weather Stations Pressure Air Temp Water Temp Dewpoint Dewpoint Depression Visibility Wind Speed Wind Dir Waves Ship Positions

Siam

Last reported at 2017-Jul-20 12:00 UTC. Time now 2017-Jul-20 12:23 UTC.
Position N 55°60' E 012°42'.

Length 22 m.

Type: Passenger vessel. MMSI: 265572320.

Date/timePositionNaut miles runAvg speedWind from/ knotsBaromVisibWave heightAir tempDewpointWater temp
2017-Jul-20 12:00N 55°60' E 012°42'1 2.8
2017-Jul-20 11:30N 55°59' E 012°45'0 0.2
2017-Jul-20 10:58N 55°60' E 012°45'0 0.0
2017-Jul-20 10:28N 55°60' E 012°45'0 0.2
2017-Jul-20 10:00N 55°59' E 012°45'4 7.7
2017-Jul-20 09:28N 55°56' E 012°40'0 0.6
2017-Jul-20 09:00N 55°56' E 012°40'1 2.7
2017-Jul-20 08:30N 55°56' E 012°42'0 0.3
2017-Jul-20 08:00N 55°56' E 012°42'1 1.2
2017-Jul-20 07:30N 55°57' E 012°41'1 1.2
2017-Jul-20 07:01N 55°57' E 012°41'1 1.4
2017-Jul-20 06:30N 55°58' E 012°41'2 4.1
2017-Jul-20 06:00N 55°59' E 012°44'0 0.5
2017-Jul-20 05:20N 55°60' E 012°45'0 0.0
2017-Jul-20 04:53N 55°60' E 012°45'0 0.0
2017-Jul-20 04:23N 55°60' E 012°45'0 0.0
2017-Jul-20 02:35N 55°60' E 012°45'0 0.0
2017-Jul-20 02:29N 55°60' E 012°45'0 0.0
2017-Jul-20 01:53N 55°60' E 012°45'0 0.0
2017-Jul-20 01:29N 55°60' E 012°45'0 0.0
2017-Jul-20 00:59N 55°60' E 012°45'0 0.0
2017-Jul-20 00:29N 55°60' E 012°45'0 0.0
2017-Jul-19 23:59N 55°60' E 012°45'0 0.0
2017-Jul-19 23:29N 55°60' E 012°45'0 0.0
2017-Jul-19 22:59N 55°60' E 012°45'0 0.0
2017-Jul-19 22:29N 55°60' E 012°45'0 0.0
2017-Jul-19 21:59N 55°60' E 012°45'0 0.0
2017-Jul-19 21:29N 55°60' E 012°45'0 0.0
2017-Jul-19 20:59N 55°60' E 012°45'0 0.0
2017-Jul-19 20:29N 55°60' E 012°45'0 0.0
2017-Jul-19 19:59N 55°60' E 012°45'0 0.0
2017-Jul-19 19:29N 55°60' E 012°45'0 0.0
2017-Jul-19 18:59N 55°60' E 012°45'0 0.0
2017-Jul-19 18:29N 55°60' E 012°45'0 0.0
2017-Jul-19 17:56N 55°60' E 012°45'0 0.0
2017-Jul-19 17:29N 55°60' E 012°45'0 0.0
2017-Jul-19 16:53N 55°60' E 012°45'0 0.0
2017-Jul-19 16:29N 55°60' E 012°45'0 0.0
2017-Jul-19 15:47N 55°60' E 012°45'0 0.0
2017-Jul-19 15:30N 55°60' E 012°45'2 4.5
2017-Jul-19 14:58N 55°58' E 012°42'2 3.2
2017-Jul-19 14:29N 55°56' E 012°42'1 1.6
2017-Jul-19 13:59N 55°56' E 012°44'2 3.8
2017-Jul-19 13:30N 55°56' E 012°40'0 0.7
2017-Jul-19 13:00N 55°56' E 012°40'2 3.2
2017-Jul-19 12:30N 55°57' E 012°42'0 0.1
2017-Jul-19 12:00N 55°57' E 012°41'3 1.4
2017-Jul-19 09:59N 55°60' E 012°45'2 4.0
2017-Jul-19 09:29N 55°59' E 012°41'1 2.2
2017-Jul-19 09:00N 55°60' E 012°42'0 0.4
2017-Jul-19 08:30N 55°59' E 012°42'1 1.6
2017-Jul-19 08:00N 56°00' E 012°42'0 0.3
2017-Jul-19 07:30N 56°00' E 012°42'0 0.5
2017-Jul-19 07:00N 56°00' E 012°42'1 2.4
2017-Jul-19 06:30N 55°59' E 012°41'2 0.1
2017-Jul-18 10:13N 55°60' E 012°45'1 5.2
2017-Jul-18 10:00N 55°58' E 012°44'2 3.1
2017-Jul-18 09:14N 55°56' E 012°43'0 1.4
2017-Jul-18 08:59N 55°56' E 012°44'0 0.4
2017-Jul-18 08:16N 55°56' E 012°43'0 0.4
2017-Jul-18 07:57N 55°56' E 012°44'0 0.5
2017-Jul-18 07:30N 55°56' E 012°44'2 3.4
2017-Jul-18 07:00N 55°56' E 012°41'2 3.3
2017-Jul-18 06:30N 55°58' E 012°42'2 0.1
2017-Jul-17 13:08N 55°60' E 012°45'0 0.0
2017-Jul-17 12:44N 55°60' E 012°45'0 0.0
2017-Jul-17 11:23N 55°60' E 012°45'0 0.0
2017-Jul-17 10:53N 55°60' E 012°45'0 0.0
2017-Jul-17 10:26N 55°60' E 012°45'0 0.0
2017-Jul-17 09:59N 55°60' E 012°45'0 0.0
2017-Jul-17 09:29N 55°60' E 012°45'0 0.0
2017-Jul-17 08:59N 55°60' E 012°45'0 0.0
2017-Jul-17 08:29N 55°60' E 012°45'0 0.0
2017-Jul-17 07:53N 55°60' E 012°45'0 0.0
2017-Jul-17 07:29N 55°60' E 012°45'0 0.0
2017-Jul-17 06:59N 55°60' E 012°45'0 0.0
2017-Jul-17 06:29N 55°60' E 012°45'0 0.0
2017-Jul-17 05:53N 55°60' E 012°45'0 0.0
2017-Jul-17 03:44N 55°60' E 012°45'0 0.0
2017-Jul-17 03:23N 55°60' E 012°45'0 0.0
2017-Jul-17 02:38N 55°60' E 012°45'0 0.0
2017-Jul-17 02:11N 55°60' E 012°45'0 0.0
2017-Jul-17 01:11N 55°60' E 012°45'0 0.0
2017-Jul-17 00:53N 55°60' E 012°45'0 0.0
2017-Jul-17 00:29N 55°60' E 012°45'0 0.0
2017-Jul-16 23:44N 55°60' E 012°45'0 0.0
2017-Jul-16 23:29N 55°60' E 012°45'0 0.0
2017-Jul-16 22:59N 55°60' E 012°45'0 0.0
2017-Jul-16 22:17N 55°60' E 012°45'0 0.0
2017-Jul-16 21:53N 55°60' E 012°45'0 0.0
2017-Jul-16 21:17N 55°60' E 012°45'0 0.0
2017-Jul-16 20:59N 55°60' E 012°45'0 0.0
2017-Jul-16 20:29N 55°60' E 012°45'0 0.0
2017-Jul-16 19:53N 55°60' E 012°45'0 0.0
2017-Jul-16 19:29N 55°60' E 012°45'0 0.0
2017-Jul-16 18:59N 55°60' E 012°45'0 0.0
2017-Jul-16 18:29N 55°60' E 012°45'0 0.0
2017-Jul-16 17:59N 55°60' E 012°45'0 0.0
2017-Jul-16 17:17N 55°60' E 012°45'0 0.0
2017-Jul-16 16:59N 55°60' E 012°45'0 0.0
2017-Jul-16 16:11N 55°60' E 012°45'0 0.0
2017-Jul-16 15:50N 55°60' E 012°45'0 0.0
2017-Jul-16 15:14N 55°60' E 012°45'0 0.0
2017-Jul-16 14:59N 55°60' E 012°45'0 0.0
2017-Jul-16 14:26N 55°60' E 012°45'0 0.0
2017-Jul-16 13:56N 55°60' E 012°45'0 0.0
2017-Jul-16 13:29N 55°60' E 012°45'0 0.0
2017-Jul-16 12:59N 55°60' E 012°45'0 0.0
2017-Jul-16 12:29N 55°60' E 012°45'0 0.0
2017-Jul-16 11:59N 55°60' E 012°45'0 0.0
2017-Jul-16 11:29N 55°60' E 012°45'0 0.0
2017-Jul-16 10:59N 55°60' E 012°45'0 0.0
2017-Jul-16 10:29N 55°60' E 012°45'0 0.0
2017-Jul-16 09:59N 55°60' E 012°45'0 0.0
2017-Jul-16 09:17N 55°60' E 012°45'0 0.0
2017-Jul-16 08:59N 55°60' E 012°45'0 0.0
2017-Jul-16 08:26N 55°60' E 012°45'0 0.0
2017-Jul-16 07:59N 55°60' E 012°45'0 0.0
2017-Jul-16 07:29N 55°60' E 012°45'0 0.0
2017-Jul-16 06:59N 55°60' E 012°45'0 0.0
2017-Jul-16 06:29N 55°60' E 012°45'0 0.0
2017-Jul-16 05:59N 55°60' E 012°45'0 0.0
2017-Jul-16 05:26N 55°60' E 012°45'0 0.0
2017-Jul-16 04:59N 55°60' E 012°45'0 0.0
2017-Jul-16 04:26N 55°60' E 012°45'0 0.0
2017-Jul-16 03:59N 55°60' E 012°45'0 0.0
2017-Jul-16 03:29N 55°60' E 012°45'0 0.0
2017-Jul-16 02:53N 55°60' E 012°45'0 0.0
2017-Jul-16 02:29N 55°60' E 012°45'0 0.0
2017-Jul-16 01:56N 55°60' E 012°45'0 0.0
2017-Jul-16 01:29N 55°60' E 012°45'0 0.0
2017-Jul-16 00:59N 55°60' E 012°45'0 0.0
2017-Jul-16 00:29N 55°60' E 012°45'0 0.0
2017-Jul-15 23:59N 55°60' E 012°45'0 0.0
2017-Jul-15 23:29N 55°60' E 012°45'0 0.0
2017-Jul-15 22:59N 55°60' E 012°45'0 0.0
2017-Jul-15 22:29N 55°60' E 012°45'0 0.0
2017-Jul-15 21:59N 55°60' E 012°45'0 0.0
2017-Jul-15 21:29N 55°60' E 012°45'0 0.0
2017-Jul-15 20:59N 55°60' E 012°45'0 0.0
2017-Jul-15 20:26N 55°60' E 012°45'0 0.0
2017-Jul-15 20:00N 55°60' E 012°45'4 7.8
2017-Jul-15 19:30N 55°56' E 012°44'5 9.4
2017-Jul-15 18:56N 55°50' E 012°42'5 9.4
2017-Jul-15 18:26N 55°46' E 012°40'4 8.9
2017-Jul-15 18:00N 55°42' E 012°37'1 2.0
2017-Jul-15 17:29N 55°42' E 012°36'4 8.2
2017-Jul-15 16:59N 55°45' E 012°39'6 8.7
2017-Jul-15 16:18N 55°51' E 012°39'3 8.6
2017-Jul-15 15:59N 55°54' E 012°39'4 8.5
2017-Jul-15 15:30N 55°58' E 012°42'2 4.7
2017-Jul-15 15:00N 55°60' E 012°45'0 0.0
2017-Jul-15 14:00N 55°60' E 012°45'0 0.0
2017-Jul-15 13:24N 55°60' E 012°45'0 0.0
2017-Jul-15 13:00N 55°60' E 012°45'0 0.0
2017-Jul-15 12:30N 55°60' E 012°45'0 0.0
2017-Jul-15 12:00N 55°60' E 012°45'0 0.0
2017-Jul-15 11:30N 55°60' E 012°45'0 0.0
2017-Jul-15 10:54N 55°60' E 012°45'0 0.0
2017-Jul-15 10:30N 55°60' E 012°45'0 0.3
2017-Jul-15 10:00N 55°59' E 012°44'4 7.4
2017-Jul-15 09:30N 55°56' E 012°42'0 0.4
2017-Jul-15 09:00N 55°56' E 012°42'0 0.1
2017-Jul-15 08:29N 55°56' E 012°42'0 0.2
2017-Jul-15 08:00N 55°56' E 012°42'0 0.6
2017-Jul-15 07:27N 55°56' E 012°42'0 0.7
2017-Jul-15 07:00N 55°57' E 012°42'3 5.3
2017-Jul-15 06:27N 55°60' E 012°42'2 3.2
2017-Jul-15 05:55N 55°60' E 012°45'0 0.0
2017-Jul-15 05:25N 55°60' E 012°45'0 0.0
2017-Jul-15 04:58N 55°60' E 012°45'0 0.0
2017-Jul-15 04:22N 55°60' E 012°45'0 0.0
2017-Jul-15 03:55N 55°60' E 012°45'0 0.0
2017-Jul-15 03:19N 55°60' E 012°45'0 0.0
2017-Jul-15 02:49N 55°60' E 012°45'0 0.0
2017-Jul-15 02:22N 55°60' E 012°45'0 0.0
2017-Jul-15 00:55N 55°60' E 012°45'0 0.0
2017-Jul-15 00:25N 55°60' E 012°45'0 0.0
2017-Jul-14 23:43N 55°60' E 012°45'0 0.0
2017-Jul-14 23:13N 55°60' E 012°45'0 0.0
2017-Jul-14 22:55N 55°60' E 012°45'0 0.0
2017-Jul-14 22:28N 55°60' E 012°45'0 0.0
2017-Jul-14 21:55N 55°60' E 012°45'0 0.0
2017-Jul-14 21:28N 55°60' E 012°45'0 0.0
2017-Jul-14 20:58N 55°60' E 012°45'0 0.0
2017-Jul-14 20:28N 55°60' E 012°45'0 0.0
2017-Jul-14 19:52N 55°60' E 012°45'0 0.0
2017-Jul-14 19:25N 55°60' E 012°45'0 0.0
2017-Jul-14 18:58N 55°60' E 012°45'0 0.0
2017-Jul-14 18:22N 55°60' E 012°45'0 0.0
2017-Jul-14 17:58N 55°60' E 012°45'0 0.0
2017-Jul-14 17:28N 55°60' E 012°45'0 0.0
2017-Jul-14 16:52N 55°60' E 012°45'0 0.0
2017-Jul-14 15:49N 55°60' E 012°45'0 0.0
2017-Jul-14 15:13N 55°60' E 012°45'0 0.0
2017-Jul-14 14:58N 55°60' E 012°45'0 0.0
2017-Jul-14 14:25N 55°60' E 012°45'0 0.0
2017-Jul-14 11:19N 55°60' E 012°45'0 0.0
2017-Jul-14 10:56N 55°60' E 012°45'0 0.0
2017-Jul-14 10:26N 55°60' E 012°45'1 3.2
2017-Jul-14 10:01N 55°58' E 012°44'2 4.6
2017-Jul-14 09:28N 55°56' E 012°43'0 0.4
2017-Jul-14 08:58N 55°56' E 012°43'0 0.5
2017-Jul-14 08:26N 55°56' E 012°43'0 0.6
2017-Jul-14 08:00N 55°56' E 012°43'0 0.1
2017-Jul-14 07:28N 55°56' E 012°43'1 3.0
2017-Jul-14 07:00N 55°56' E 012°41'1 1.9
2017-Jul-14 06:30N 55°57' E 012°42'3 0.3
2017-Jul-13 17:59N 55°60' E 012°45'0 0.0
2017-Jul-13 17:26N 55°60' E 012°45'0 0.0
2017-Jul-13 11:02N 55°60' E 012°45'0 0.1
2017-Jul-13 10:57N 55°60' E 012°45'4 7.6
2017-Jul-13 10:27N 55°56' E 012°45'3 5.3
2017-Jul-13 09:53N 55°53' E 012°45'0 0.1
2017-Jul-13 09:19N 55°53' E 012°45'0 0.4
2017-Jul-13 08:51N 55°53' E 012°45'1 1.2
2017-Jul-13 08:22N 55°53' E 012°45'4 9.4
2017-Jul-13 07:59N 55°56' E 012°41'1 2.4
2017-Jul-13 07:29N 55°56' E 012°39'0 0.1
2017-Jul-13 06:59N 55°56' E 012°39'1 1.2
2017-Jul-13 06:31N 55°56' E 012°40'4 7.8
2017-Jul-13 05:57N 55°59' E 012°44'0 0.0
2017-Jul-12 23:28N 55°60' E 012°45'0 0.0
2017-Jul-12 22:43N 55°60' E 012°45'0 0.0
2017-Jul-12 22:25N 55°60' E 012°45'0 0.0
2017-Jul-12 21:49N 55°60' E 012°45'0 0.0
2017-Jul-12 20:28N 55°60' E 012°45'0 0.0
2017-Jul-12 19:58N 55°60' E 012°45'0 0.0
2017-Jul-12 16:07N 55°60' E 012°45'0 0.0
2017-Jul-12 15:31N 55°60' E 012°45'0 0.8
2017-Jul-12 15:30N 55°60' E 012°45'2 3.9
2017-Jul-12 14:58N 55°59' E 012°41'2 2.5
2017-Jul-12 14:00N 55°56' E 012°42'1 1.7
2017-Jul-12 13:29N 55°56' E 012°43'0 0.2
2017-Jul-12 12:45N 55°56' E 012°43'0 1.0
2017-Jul-12 12:25N 55°56' E 012°44'0 0.2
2017-Jul-12 12:00N 55°56' E 012°44'4 6.9
2017-Jul-12 11:30N 55°59' E 012°44'0 0.1
2017-Jul-12 10:05N 55°60' E 012°45'0 1.9
2017-Jul-12 10:00N 55°59' E 012°44'4 8.3
2017-Jul-12 09:28N 55°56' E 012°39'0 0.3
2017-Jul-12 09:00N 55°56' E 012°40'2 3.1
2017-Jul-12 08:28N 55°56' E 012°43'1 1.8
2017-Jul-12 07:50N 55°56' E 012°44'1 1.9
2017-Jul-12 07:30N 55°56' E 012°43'0 0.8
2017-Jul-12 06:53N 55°56' E 012°43'0 0.4
2017-Jul-12 06:30N 55°56' E 012°44'4 7.1
2017-Jul-12 06:01N 55°59' E 012°45'0 0.0
2017-Jul-12 01:15N 55°60' E 012°45'0 0.0
2017-Jul-12 00:06N 55°60' E 012°45'0 0.0
2017-Jul-12 00:00N 55°60' E 012°45'0 0.0
2017-Jul-11 23:27N 55°60' E 012°45'0 0.0
2017-Jul-11 22:39N 55°60' E 012°45'0 0.0
2017-Jul-11 22:30N 55°60' E 012°45'0 0.0
2017-Jul-11 22:00N 55°60' E 012°45'0 0.0
2017-Jul-11 21:30N 55°60' E 012°45'0 0.0
2017-Jul-11 21:00N 55°60' E 012°45'0 0.0
2017-Jul-11 20:30N 55°60' E 012°45'0 0.0
2017-Jul-11 19:57N 55°60' E 012°45'0 0.0
2017-Jul-11 19:30N 55°60' E 012°45'0 0.0
2017-Jul-11 19:00N 55°60' E 012°45'0 0.0
2017-Jul-11 18:30N 55°60' E 012°45'0 0.0
2017-Jul-11 18:00N 55°60' E 012°45'0 0.0
2017-Jul-11 17:30N 55°60' E 012°45'0 0.0
2017-Jul-11 17:00N 55°60' E 012°45'0 0.0
2017-Jul-11 16:27N 55°60' E 012°45'0 0.0
2017-Jul-11 16:00N 55°60' E 012°45'0 0.0
2017-Jul-11 15:30N 55°60' E 012°45'2 4.0
2017-Jul-11 14:59N 55°59' E 012°41'1 2.9
2017-Jul-11 14:30N 55°57' E 012°42'0 0.6
2017-Jul-11 14:00N 55°57' E 012°42'1 1.9
2017-Jul-11 13:30N 55°56' E 012°41'1 1.8
2017-Jul-11 13:00N 55°56' E 012°39'0 0.6
2017-Jul-11 12:28N 55°56' E 012°40'2 3.4
2017-Jul-11 12:00N 55°57' E 012°42'3 6.3
2017-Jul-11 11:29N 55°60' E 012°45'0 0.1
2017-Jul-11 11:00N 55°60' E 012°45'0 0.0
2017-Jul-11 10:12N 55°60' E 012°45'0 0.1
2017-Jul-11 10:00N 55°60' E 012°45'2 3.7
2017-Jul-11 09:30N 55°59' E 012°42'0 0.5
2017-Jul-11 09:00N 55°59' E 012°41'1 1.5
2017-Jul-11 08:30N 55°58' E 012°41'2 4.0
2017-Jul-11 08:00N 55°56' E 012°41'1 2.5
2017-Jul-11 07:30N 55°55' E 012°39'0 0.5
2017-Jul-11 07:00N 55°55' E 012°39'1 2.2
2017-Jul-11 06:30N 55°56' E 012°41'4 2.8
2017-Jul-11 05:03N 55°60' E 012°45'0 0.0
2017-Jul-11 04:57N 55°60' E 012°45'0 0.0
2017-Jul-11 03:33N 55°60' E 012°45'0 0.0
2017-Jul-11 03:21N 55°60' E 012°45'0 0.0
2017-Jul-11 02:48N 55°60' E 012°45'0 0.0
2017-Jul-11 02:27N 55°60' E 012°45'0 0.0
2017-Jul-11 02:00N 55°60' E 012°45'0 0.0
2017-Jul-11 01:30N 55°60' E 012°45'0 0.0
2017-Jul-11 00:57N 55°60' E 012°45'0 0.0
2017-Jul-11 00:27N 55°60' E 012°45'0 0.0
2017-Jul-10 23:57N 55°60' E 012°45'0 0.0
2017-Jul-10 23:27N 55°60' E 012°45'0 0.0
2017-Jul-10 22:57N 55°60' E 012°45'0 0.0
2017-Jul-10 22:27N 55°60' E 012°45'0 0.0
2017-Jul-10 21:57N 55°60' E 012°45'0 0.0
2017-Jul-10 21:27N 55°60' E 012°45'0 0.0
2017-Jul-10 20:57N 55°60' E 012°45'0 0.0
2017-Jul-10 20:27N 55°60' E 012°45'0 0.0
2017-Jul-10 19:51N 55°60' E 012°45'0 0.0
2017-Jul-10 19:27N 55°60' E 012°45'0 0.0
2017-Jul-10 18:51N 55°60' E 012°45'0 0.0
2017-Jul-10 18:30N 55°60' E 012°45'0 0.0
2017-Jul-10 17:57N 55°60' E 012°45'0 0.0
2017-Jul-10 16:21N 55°60' E 012°45'0 0.0
2017-Jul-10 15:57N 55°60' E 012°45'0 0.0
2017-Jul-10 15:30N 55°60' E 012°45'0 0.0
2017-Jul-10 15:00N 55°60' E 012°45'0 0.0
2017-Jul-10 14:21N 55°60' E 012°45'0 0.0
2017-Jul-10 13:54N 55°60' E 012°45'0 0.0
2017-Jul-10 13:30N 55°60' E 012°45'0 0.0
2017-Jul-10 13:00N 55°60' E 012°45'0 0.0
2017-Jul-10 12:30N 55°60' E 012°45'  

Dump ship's entire track history